OROVILLE DAM (ORO)

Elevation: 900' · FEATHER R basin · Operator: CA Dept of Water Resources/O & M


Station comments:

12/31/2014Sensor for reservoir elevation has been repaired. Data from 12/30/14, 0900 is valid.
12/30/2014Hourly elevation and storage data is invalid since 12/25/2014. Data is being flagged.


Provisional data, subject to change.
Query executed Sunday at 22:22:14   clock

Select a sensor type for a plot of data.
Note: Reservoir Flows are daily averages.

Earlier

Date RES ELE    STORAGE    RES CHG    TOC STO    ABV TOC    OUTFLOW    INFLOW    EVAP    FNF    PPT INC    RAIN    PPTINC4   
 FEET   AF   AF   AF   AF   CFS   CFS   CFS   CFS   INCHES   INCHES   INCHES  
02/28/2015 756.14 1735518 3343 3138418 -1402900 631 2343 27 3274 0.04 22.92 0.24
03/01/2015 756.53 1739248 3729 3143900 -1404652 644 2592 19 3340 0.00 22.92 0.04
03/02/2015 756.90 1742791 3543 3147763 -1404972 538 2382 57 3188 0.00 22.92 0.00
03/03/2015 757.22 1745860 3069 3152712 -1406852 550 2069 21 2755 0.00 22.92 0.00
03/04/2015 757.60 1749508 3649 3158018 -1408509 532 2470 49 3272 0.00 22.92 0.00
03/05/2015 757.88 1752201 2692 3163000 -1410799 536 1979 37 2677 0.00 22.92 0.00
03/06/2015 758.17 1754992 2791 3163000 -1408008 534 1884 39 2599 0.00 22.92 0.00
03/07/2015 758.53 1758462 3471 3163000 -1404538 501 2290 39 2732 e 0.00 22.92 0.00
03/08/2015 758.78 1760875 2412 3163000 -1402125 438 1742 39 2731 e 0.00 22.92 0.00
03/09/2015 759.07 1763676 2801 3163000 -1399324 495 1949 42 2735 0.00 22.92 0.00
03/10/2015 759.34 1766287 2611 3163000 -1396713 527 1889 45 2623 e 0.00 22.92 0.00
03/11/2015 759.63 1769094 2807 3163000 -1393906 521 1919 32 2623 e 0.12 23.04 0.00
03/12/2015 759.86 1771323 2229 3163000 -1391677 522 1719 24 2678 0.00 23.04 0.12
03/13/2015 760.12 1773853 2530 3163000 -1389147 750 2068 47 2542 0.00 23.04 0.00
03/14/2015 760.20 1774629 776 3163000 -1388371 1362 1793 40 2626 0.00 23.04 0.00
03/15/2015 760.27 1775308 679 3163000 -1387692 1346 1728 40 2237 0.00 23.04 0.00
03/16/2015 760.34 1775987 679 3163000 -1387013 1348 1743 53 2140 0.00 23.04 0.00
03/17/2015 760.44 1776957 970 3163000 -1386043 1189 1689 11 2341 0.00 23.04 0.00
03/18/2015 760.59 1778414 1457 3163000 -1384586 1184 1963 45 2331 0.00 23.04 0.00
03/19/2015 760.74 1779871 1457 3163000 -1383129 1188 1978 55 2238 0.00 23.04 0.00
03/20/2015 760.82 1780648 777 3163000 -1382352 1166 1581 72 1820 0.00 23.04 0.00
03/21/2015 760.90 1781426 778 3163000 -1381574 1174 1668 53 1991 0.00 23.04 0.00
03/22/2015 760.99 1782301 875 3163000 -1380699 1187 1681 53 2698 0.28 23.32 0.00
03/23/2015 761.16 1783955 1654 3163000 -1379045 1104 1965 27 2503 0.00 23.32 0.28
03/24/2015 761.35 1785806 1851 3163000 -1377194 1116 2035 35 2848 0.00 23.32 0.00
03/25/2015 761.45 1786780 974 3163000 -1376220 1102 1677 35 2216 0.00 23.32 0.00
03/26/2015 761.61 1788340 1560 3163000 -1374660 1008 1847 53 1931 0.00 23.32 0.00
03/27/2015 761.74 1789608 1268 3163000 -1373392 1084 1782 58 -- 0.00 23.32 0.00
03/28/2015 761.85 1790681 1073 -- -- 1086 1681 53 -- 0.00 23.32 0.00
03/29/2015 -- -- -- -- -- -- -- -- -- -- -- 0.00

Later | Latest

Warning! This data is preliminary and subject to revision.

Show ORO Map | Plot ORO Data | 1 Month ORO Data | Real-Time ORO Data | ORO Info